Time;durP1;ratioP1;P1;durP2;ratioP2;P2;SDS_P1;SDS_P2;PMS_P1;PMS_P2;Temp;Humidity;BMP_temperature;BMP_pressure;BME280_temperature;BME280_humidity;BME280_pressure;Samples;Min_cycle;Max_cycle;Signal;HPM_P1;HPM_P2
2021/06/07 00:02:07;;;;;;;42.53;25.50;;;16.10;99.90;;;;;;5032805;28;20177;-75
2021/06/07 00:04:33;;;;;;;36.47;23.73;;;16.10;99.90;;;;;;5032863;28;20543;-76
2021/06/07 00:07:00;;;;;;;47.87;25.37;;;16.10;99.90;;;;;;5033167;28;20496;-76
2021/06/07 00:09:28;;;;;;;38.63;24.23;;;16.10;99.90;;;;;;5033058;28;20722;-76
2021/06/07 00:11:58;;;;;;;41.97;25.37;;;16.10;99.90;;;;;;5031453;28;20479;-75
2021/06/07 00:14:30;;;;;;;43.53;24.40;;;16.10;99.90;;;;;;5032582;28;20404;-75
2021/06/07 00:16:56;;;;;;;37.03;26.40;;;16.00;99.90;;;;;;5032869;28;20419;-75
2021/06/07 00:19:24;;;;;;;42.30;25.47;;;16.00;99.90;;;;;;5033246;28;20467;-75
2021/06/07 00:21:50;;;;;;;36.13;23.20;;;16.00;99.90;;;;;;5015022;28;20462;-78
2021/06/07 00:24:18;;;;;;;46.20;27.03;;;15.90;99.90;;;;;;5032327;28;20557;-76
2021/06/07 00:26:46;;;;;;;39.67;25.00;;;16.00;99.90;;;;;;5031548;28;20420;-75
2021/06/07 00:29:12;;;;;;;46.53;26.63;;;15.90;99.90;;;;;;5032747;28;20435;-76
2021/06/07 00:31:39;;;;;;;40.87;25.50;;;15.90;99.90;;;;;;5015029;28;20420;-78
2021/06/07 00:34:05;;;;;;;42.03;26.60;;;16.00;99.90;;;;;;5031980;28;20182;-75
2021/06/07 00:36:30;;;;;;;43.80;24.60;;;15.90;99.90;;;;;;5032575;28;20416;-75
2021/06/07 00:38:56;;;;;;;41.00;25.40;;;15.90;99.90;;;;;;5031073;28;20518;-75
2021/06/07 00:41:22;;;;;;;37.63;23.77;;;15.90;99.90;;;;;;5031278;28;20185;-75
2021/06/07 00:43:56;;;;;;;42.57;24.47;;;15.90;99.90;;;;;;5031430;28;20174;-77
2021/06/07 00:46:23;;;;;;;45.93;23.93;;;15.90;99.90;;;;;;5032435;28;20476;-75
2021/06/07 00:48:49;;;;;;;38.27;23.57;;;16.00;99.90;;;;;;5032498;28;20858;-76
2021/06/07 00:51:14;;;;;;;49.13;27.10;;;15.90;99.90;;;;;;5032363;28;20420;-78
2021/06/07 00:53:40;;;;;;;40.23;25.07;;;16.00;99.90;;;;;;5031390;28;20310;-75
2021/06/07 00:56:09;;;;;;;40.73;25.67;;;16.00;99.90;;;;;;5032526;28;20182;-75
2021/06/07 00:58:38;;;;;;;48.60;25.50;;;15.90;99.90;;;;;;5032075;28;20202;-76
2021/06/07 01:01:06;;;;;;;48.43;26.57;;;15.90;99.90;;;;;;5032260;28;20933;-75
2021/06/07 01:03:32;;;;;;;52.03;26.27;;;15.90;99.90;;;;;;5031038;28;20424;-75
2021/06/07 01:05:59;;;;;;;42.07;25.87;;;15.90;99.90;;;;;;5031965;28;20412;-75
2021/06/07 01:08:25;;;;;;;38.53;24.77;;;15.90;99.90;;;;;;5032226;28;20428;-75
2021/06/07 01:10:52;;;;;;;41.50;24.87;;;15.90;99.90;;;;;;5031965;28;20448;-76
2021/06/07 01:13:19;;;;;;;45.50;26.30;;;15.90;99.90;;;;;;5031391;28;20448;-77
2021/06/07 01:15:46;;;;;;;42.63;28.27;;;15.90;99.90;;;;;;5031911;28;20409;-77
2021/06/07 01:18:15;;;;;;;44.50;27.20;;;15.90;99.90;;;;;;5014259;28;20870;-78
2021/06/07 01:20:41;;;;;;;48.97;26.67;;;15.90;99.90;;;;;;5031756;28;20436;-75
2021/06/07 01:23:07;;;;;;;50.73;27.07;;;15.80;99.90;;;;;;5030846;28;20417;-75
2021/06/07 01:25:36;;;;;;;40.63;25.40;;;15.80;99.90;;;;;;5031756;28;20898;-78
2021/06/07 01:28:03;;;;;;;51.57;26.97;;;15.90;99.90;;;;;;5031786;28;20177;-75
2021/06/07 01:30:32;;;;;;;50.93;26.97;;;15.80;99.90;;;;;;5031566;28;20436;-75
2021/06/07 01:32:58;;;;;;;53.10;27.77;;;15.70;99.90;;;;;;5030610;28;20417;-76
2021/06/07 01:35:25;;;;;;;44.13;26.93;;;15.80;99.90;;;;;;5014029;28;20459;-75
2021/06/07 01:37:52;;;;;;;45.57;27.23;;;15.70;99.90;;;;;;5031356;28;20467;-75
2021/06/07 01:40:24;;;;;;;47.27;27.77;;;15.80;99.90;;;;;;5031559;28;20428;-75
2021/06/07 01:42:50;;;;;;;59.73;28.77;;;15.70;99.90;;;;;;5029328;28;20837;-78
2021/06/07 01:45:19;;;;;;;48.10;26.50;;;15.70;99.90;;;;;;5031690;28;20413;-76
2021/06/07 01:47:45;;;;;;;51.53;26.00;;;15.80;99.90;;;;;;5031509;28;20787;-77
2021/06/07 01:50:11;;;;;;;52.93;27.10;;;15.70;99.90;;;;;;5014032;28;20903;-76
2021/06/07 01:52:43;;;;;;;46.90;27.10;;;15.80;99.90;;;;;;5030763;28;20642;-75
2021/06/07 01:55:23;;;;;;;60.67;27.17;;;15.70;99.90;;;;;;5031361;28;20444;-75
2021/06/07 01:57:51;;;;;;;54.27;28.07;;;15.70;99.90;;;;;;5031427;28;20448;-76
2021/06/07 02:00:19;;;;;;;50.80;27.37;;;15.70;99.90;;;;;;5031157;28;20435;-75
2021/06/07 02:02:46;;;;;;;51.63;28.00;;;15.70;99.90;;;;;;5030552;28;20412;-77
2021/06/07 02:05:15;;;;;;;48.50;25.70;;;15.70;99.90;;;;;;5031009;28;20420;-75
2021/06/07 02:07:49;;;;;;;46.70;25.23;;;15.70;99.90;;;;;;5031379;28;20482;-76
2021/06/07 02:10:16;;;;;;;47.23;26.77;;;15.70;99.90;;;;;;5031038;28;20452;-75
2021/06/07 02:12:42;;;;;;;56.97;28.43;;;15.70;99.90;;;;;;5012747;28;20478;-76
2021/06/07 02:15:09;;;;;;;57.00;28.93;;;15.70;99.90;;;;;;5030855;28;20420;-77
2021/06/07 02:17:34;;;;;;;49.53;27.13;;;15.70;99.90;;;;;;5013555;28;20988;-76
2021/06/07 02:20:01;;;;;;;54.20;28.10;;;15.70;99.90;;;;;;5013580;28;20477;-76
2021/06/07 02:22:26;;;;;;;52.47;26.60;;;15.60;99.90;;;;;;5030485;28;20174;-77
2021/06/07 02:24:52;;;;;;;52.97;26.77;;;15.70;99.90;;;;;;5030930;28;20412;-75
2021/06/07 02:27:17;;;;;;;53.30;25.60;;;15.70;99.90;;;;;;5031812;28;20178;-76
2021/06/07 02:29:43;;;;;;;49.60;27.47;;;15.70;99.90;;;;;;5031129;28;20209;-76
2021/06/07 02:32:08;;;;;;;52.37;27.50;;;15.70;99.90;;;;;;5030498;28;20667;-76
2021/06/07 02:34:36;;;;;;;49.80;27.63;;;15.70;99.90;;;;;;5013160;28;20919;-75
2021/06/07 02:37:02;;;;;;;44.67;26.20;;;15.60;99.90;;;;;;5030584;28;20593;-75
2021/06/07 02:39:28;;;;;;;56.40;28.93;;;15.70;99.90;;;;;;5030958;28;20439;-75
2021/06/07 02:41:54;;;;;;;69.00;30.30;;;15.70;99.90;;;;;;5030996;28;20231;-75
2021/06/07 02:44:21;;;;;;;58.80;28.60;;;15.70;99.90;;;;;;5029985;28;20202;-75
2021/06/07 02:46:47;;;;;;;63.00;30.63;;;15.60;99.90;;;;;;5031200;28;20198;-76
2021/06/07 02:49:13;;;;;;;63.73;29.60;;;15.60;99.90;;;;;;5030906;28;20853;-75
2021/06/07 02:51:39;;;;;;;57.73;28.73;;;15.60;99.90;;;;;;5031223;28;20413;-76
2021/06/07 02:54:07;;;;;;;53.03;27.93;;;15.70;99.90;;;;;;5028197;28;20440;-76
2021/06/07 02:56:33;;;;;;;58.37;29.20;;;15.70;99.90;;;;;;5031184;28;20228;-76
2021/06/07 02:58:58;;;;;;;58.30;29.50;;;15.70;99.90;;;;;;5030913;28;20503;-77
2021/06/07 03:01:24;;;;;;;55.00;27.77;;;15.70;99.90;;;;;;5030671;28;20230;-75
2021/06/07 03:03:49;;;;;;;50.73;30.10;;;15.70;99.90;;;;;;5030066;28;20178;-76
2021/06/07 03:06:15;;;;;;;52.40;28.67;;;15.60;99.90;;;;;;5034195;28;20232;-77
2021/06/07 03:08:40;;;;;;;53.27;28.27;;;15.60;99.90;;;;;;5034630;28;20178;-74
2021/06/07 03:11:10;;;;;;;54.47;27.47;;;15.60;99.90;;;;;;5034364;28;20177;-74
2021/06/07 03:13:36;;;;;;;56.33;28.73;;;15.60;99.90;;;;;;5033590;28;20178;-77
2021/06/07 03:16:02;;;;;;;52.90;28.80;;;15.70;99.90;;;;;;5016204;28;20964;-76
2021/06/07 03:18:28;;;;;;;51.90;28.23;;;15.60;99.90;;;;;;5033341;28;20460;-76
2021/06/07 03:20:54;;;;;;;59.80;29.17;;;15.60;99.90;;;;;;5033529;28;20753;-75
2021/06/07 03:23:23;;;;;;;58.00;28.30;;;15.60;99.90;;;;;;5015260;28;20269;-75
2021/06/07 03:25:50;;;;;;;57.50;30.90;;;15.70;99.90;;;;;;5032971;28;20412;-76
2021/06/07 03:28:18;;;;;;;54.37;29.70;;;15.70;99.90;;;;;;5034256;28;20419;-75
2021/06/07 03:30:44;;;;;;;53.60;30.30;;;15.70;99.90;;;;;;5034100;28;20433;-75
2021/06/07 03:33:10;;;;;;;57.57;32.60;;;15.60;99.90;;;;;;5032978;28;20805;-75
2021/06/07 03:35:37;;;;;;;51.70;28.80;;;15.60;99.90;;;;;;5033983;28;20416;-75
2021/06/07 03:38:04;;;;;;;68.20;31.30;;;15.60;99.90;;;;;;5033557;28;20456;-76
2021/06/07 03:40:33;;;;;;;64.43;30.10;;;15.60;99.90;;;;;;5033789;28;20436;-75
2021/06/07 03:42:59;;;;;;;65.10;34.47;;;15.60;99.90;;;;;;5032869;28;20413;-75
2021/06/07 03:45:25;;;;;;;58.13;32.27;;;15.60;99.90;;;;;;5033913;28;20551;-76
2021/06/07 03:47:51;;;;;;;67.00;31.57;;;15.50;99.90;;;;;;5033458;28;20495;-75
2021/06/07 03:50:20;;;;;;;63.33;31.97;;;15.50;99.90;;;;;;5027820;28;20503;-75
2021/06/07 03:52:46;;;;;;;61.97;30.33;;;15.50;99.90;;;;;;5013040;28;20465;-76
2021/06/07 03:55:14;;;;;;;58.23;30.10;;;15.50;99.90;;;;;;5013680;28;20469;-75
2021/06/07 03:57:40;;;;;;;62.40;32.90;;;15.50;99.90;;;;;;5013734;28;20476;-75
2021/06/07 04:00:09;;;;;;;72.70;33.70;;;15.50;99.90;;;;;;5013569;28;20517;-75
2021/06/07 04:02:34;;;;;;;59.83;30.80;;;15.50;99.90;;;;;;5012779;28;20413;-74
2021/06/07 04:05:00;;;;;;;61.43;30.53;;;15.50;99.90;;;;;;5013369;28;20412;-76
2021/06/07 04:07:25;;;;;;;59.70;30.27;;;15.50;99.90;;;;;;5013582;28;20229;-76
2021/06/07 04:09:52;;;;;;;65.60;32.53;;;15.50;99.90;;;;;;5013501;28;20236;-76
2021/06/07 04:12:17;;;;;;;64.60;30.73;;;15.50;99.90;;;;;;5012610;28;20637;-77
2021/06/07 04:14:43;;;;;;;70.30;31.83;;;15.50;99.90;;;;;;5013171;28;20410;-75
2021/06/07 04:17:09;;;;;;;61.20;28.60;;;15.50;99.90;;;;;;5012307;28;20179;-75
2021/06/07 04:19:34;;;;;;;56.53;31.47;;;15.50;99.90;;;;;;5013326;28;20193;-75
2021/06/07 04:22:00;;;;;;;62.13;30.50;;;15.50;99.90;;;;;;5012598;28;20229;-76
2021/06/07 04:24:26;;;;;;;59.03;31.43;;;15.60;99.90;;;;;;5012993;28;20182;-75
2021/06/07 04:26:51;;;;;;;61.67;30.60;;;15.60;99.90;;;;;;5013483;28;20249;-77
2021/06/07 04:29:17;;;;;;;55.43;29.87;;;15.60;99.90;;;;;;5015759;28;20920;-75
2021/06/07 04:31:43;;;;;;;62.13;31.17;;;15.70;99.90;;;;;;5028325;28;20271;-76
2021/06/07 04:34:09;;;;;;;63.90;31.70;;;15.60;99.90;;;;;;5032017;28;20192;-77
2021/06/07 04:36:35;;;;;;;62.73;31.03;;;15.60;99.90;;;;;;5032707;28;20663;-75
2021/06/07 04:39:00;;;;;;;66.63;30.30;;;15.50;99.90;;;;;;5032627;28;20457;-78
2021/06/07 04:41:26;;;;;;;59.73;30.50;;;15.50;99.90;;;;;;5032765;28;20189;-75
2021/06/07 04:43:51;;;;;;;66.07;30.07;;;15.60;99.90;;;;;;5031651;28;20178;-75
2021/06/07 04:46:17;;;;;;;49.80;29.20;;;15.60;99.90;;;;;;5032469;28;20166;-75
2021/06/07 04:48:43;;;;;;;58.90;30.90;;;15.50;99.90;;;;;;5032426;28;20548;-75
2021/06/07 04:51:08;;;;;;;74.53;31.73;;;15.50;99.90;;;;;;5032473;28;20291;-75
2021/06/07 04:53:34;;;;;;;64.00;31.60;;;15.50;99.90;;;;;;5031498;28;20444;-76
2021/06/07 04:56:00;;;;;;;60.40;31.97;;;15.60;99.90;;;;;;5032526;28;20178;-76
2021/06/07 04:58:28;;;;;;;65.40;31.00;;;15.50;99.90;;;;;;5014597;28;20220;-75
2021/06/07 05:00:56;;;;;;;63.20;30.43;;;15.50;99.90;;;;;;5032306;28;20194;-78
2021/06/07 05:03:25;;;;;;;65.27;29.40;;;15.50;99.90;;;;;;5031424;28;20462;-75
2021/06/07 05:06:22;;;;;;;64.03;30.80;;;15.50;99.90;;;;;;5032812;28;20409;-76
2021/06/07 05:08:47;;;;;;;57.27;29.47;;;15.50;99.90;;;;;;5032313;28;20805;-75
2021/06/07 05:11:13;;;;;;;65.23;32.00;;;15.60;99.90;;;;;;5032202;28;20412;-75
2021/06/07 05:13:38;;;;;;;66.83;31.50;;;15.60;99.90;;;;;;5031574;28;20170;-75
2021/06/07 05:16:04;;;;;;;60.27;31.10;;;15.60;99.90;;;;;;5032198;28;20189;-75
2021/06/07 05:18:31;;;;;;;56.47;30.97;;;15.60;99.90;;;;;;5032224;28;20254;-72
2021/06/07 05:20:56;;;;;;;55.60;28.30;;;15.70;99.90;;;;;;5032148;28;20882;-74
2021/06/07 05:23:22;;;;;;;55.47;29.50;;;15.70;99.90;;;;;;5031298;28;20503;-74
2021/06/07 05:25:49;;;;;;;56.47;29.37;;;15.70;99.90;;;;;;5032134;28;20248;-74
2021/06/07 05:28:16;;;;;;;61.07;30.67;;;15.70;99.90;;;;;;5031703;28;20178;-75
2021/06/07 05:30:44;;;;;;;68.00;31.63;;;15.70;99.90;;;;;;5032019;28;20433;-75
2021/06/07 05:33:10;;;;;;;61.37;30.87;;;15.70;99.90;;;;;;5029691;28;20499;-75
2021/06/07 05:35:40;;;;;;;61.57;32.20;;;15.70;99.90;;;;;;5031942;28;20790;-75
2021/06/07 05:38:06;;;;;;;63.20;30.27;;;15.70;99.90;;;;;;5031614;28;20501;-75
2021/06/07 05:40:32;;;;;;;52.00;28.10;;;15.80;99.90;;;;;;5031776;28;20518;-75
2021/06/07 05:42:59;;;;;;;57.33;29.17;;;15.80;99.90;;;;;;5030938;28;20412;-74
2021/06/07 05:45:26;;;;;;;63.40;29.70;;;15.80;99.90;;;;;;5032322;28;20418;-78
2021/06/07 05:47:54;;;;;;;48.20;26.50;;;15.80;99.90;;;;;;5031596;28;20572;-77
2021/06/07 05:50:21;;;;;;;45.97;26.53;;;15.80;99.90;;;;;;5031352;28;20443;-76
2021/06/07 05:52:48;;;;;;;55.67;27.60;;;15.90;99.90;;;;;;5030358;28;20420;-78
2021/06/07 05:55:19;;;;;;;40.10;24.30;;;15.90;99.90;;;;;;5031533;28;20467;-78
2021/06/07 05:57:46;;;;;;;52.30;26.30;;;16.00;99.90;;;;;;5031253;28;20589;-76
2021/06/07 06:00:15;;;;;;;45.83;26.07;;;16.00;99.90;;;;;;5031206;28;20432;-76
2021/06/07 06:02:41;;;;;;;47.00;25.43;;;16.00;99.90;;;;;;5030658;28;20443;-77
2021/06/07 06:05:07;;;;;;;53.00;26.07;;;16.00;99.90;;;;;;5029930;28;20466;-78
2021/06/07 06:07:33;;;;;;;47.07;24.10;;;16.00;99.90;;;;;;5013786;28;20443;-77
2021/06/07 06:09:59;;;;;;;40.97;24.13;;;16.00;99.90;;;;;;5031221;28;20479;-77
2021/06/07 06:12:24;;;;;;;43.97;24.53;;;16.00;99.90;;;;;;5030408;28;20879;-78
2021/06/07 06:14:50;;;;;;;48.43;23.87;;;16.00;99.90;;;;;;5030719;28;20488;-77
2021/06/07 06:17:16;;;;;;;43.03;24.00;;;16.00;99.90;;;;;;5031078;28;20177;-77
2021/06/07 06:19:41;;;;;;;49.23;25.67;;;16.00;99.90;;;;;;5031135;28;20655;-77
2021/06/07 06:22:07;;;;;;;58.20;26.27;;;16.00;99.90;;;;;;5030501;28;20189;-78
2021/06/07 06:24:33;;;;;;;43.17;22.67;;;16.00;99.90;;;;;;5030749;28;20174;-77
2021/06/07 06:26:59;;;;;;;46.80;23.83;;;16.10;99.90;;;;;;5029737;28;20205;-77
2021/06/07 06:29:25;;;;;;;41.07;23.00;;;16.20;99.90;;;;;;5031005;28;20864;-78
2021/06/07 06:31:51;;;;;;;39.80;22.37;;;16.20;99.90;;;;;;5029868;28;20175;-77
2021/06/07 06:34:16;;;;;;;44.63;23.23;;;16.30;99.90;;;;;;5030386;28;20178;-77
2021/06/07 06:36:42;;;;;;;41.10;23.50;;;16.20;99.90;;;;;;5012845;28;20184;-78
2021/06/07 06:39:07;;;;;;;45.37;25.33;;;16.30;99.90;;;;;;5031306;28;20298;-77
2021/06/07 06:41:34;;;;;;;36.23;21.50;;;16.40;99.90;;;;;;5034745;28;20170;-77
2021/06/07 06:44:00;;;;;;;52.63;24.70;;;16.40;99.90;;;;;;5033867;28;20162;-77
2021/06/07 06:46:26;;;;;;;40.67;22.33;;;16.30;99.90;;;;;;5033817;28;20416;-77
2021/06/07 06:48:52;;;;;;;43.13;22.87;;;16.30;99.90;;;;;;5034532;28;20285;-77
2021/06/07 06:51:17;;;;;;;38.47;23.53;;;16.30;99.90;;;;;;5034725;28;20316;-77
2021/06/07 06:53:43;;;;;;;36.07;22.53;;;16.30;99.90;;;;;;5033596;28;20428;-77
2021/06/07 06:56:09;;;;;;;42.40;24.10;;;16.40;99.90;;;;;;5034521;28;20231;-78
2021/06/07 06:58:34;;;;;;;37.77;20.50;;;16.40;99.90;;;;;;5034266;28;20202;-78
2021/06/07 07:01:00;;;;;;;36.60;22.57;;;16.40;99.90;;;;;;5034423;28;20257;-77
2021/06/07 07:03:26;;;;;;;35.43;22.27;;;16.50;99.90;;;;;;5033439;28;20203;-77
2021/06/07 07:05:53;;;;;;;36.37;22.33;;;16.50;99.90;;;;;;5034615;28;20416;-77
2021/06/07 07:08:21;;;;;;;38.70;21.50;;;16.40;99.90;;;;;;5034532;28;20174;-77
2021/06/07 07:10:46;;;;;;;42.43;24.20;;;16.40;99.90;;;;;;5034341;28;20467;-78
2021/06/07 07:13:13;;;;;;;34.70;21.83;;;16.40;99.90;;;;;;5033353;28;20839;-77
2021/06/07 07:15:39;;;;;;;35.60;22.37;;;16.30;99.90;;;;;;5034101;28;20246;-78
2021/06/07 07:18:07;;;;;;;34.70;21.00;;;16.30;99.90;;;;;;5034255;28;20448;-77
2021/06/07 07:20:34;;;;;;;38.60;22.53;;;16.30;99.90;;;;;;5034272;28;20444;-77
2021/06/07 07:23:00;;;;;;;34.70;19.47;;;16.40;99.90;;;;;;5033247;28;20412;-78
2021/06/07 07:25:25;;;;;;;36.00;19.77;;;16.30;99.90;;;;;;5033861;28;20405;-77
2021/06/07 07:27:51;;;;;;;36.10;19.80;;;16.30;99.90;;;;;;5034106;28;20431;-78
2021/06/07 07:30:19;;;;;;;36.93;20.40;;;16.30;99.90;;;;;;5033659;28;20198;-77
2021/06/07 07:32:47;;;;;;;35.17;20.03;;;16.30;99.90;;;;;;5015396;28;20268;-78
2021/06/07 07:35:14;;;;;;;29.53;19.93;;;16.30;99.90;;;;;;5033833;28;20417;-78
2021/06/07 07:37:41;;;;;;;34.17;19.60;;;16.40;99.90;;;;;;5033757;28;20445;-78
2021/06/07 07:40:09;;;;;;;34.80;20.00;;;16.30;99.90;;;;;;5033768;28;20460;-78
2021/06/07 07:42:36;;;;;;;32.80;19.90;;;16.40;99.90;;;;;;5033449;28;20412;-75
2021/06/07 07:45:03;;;;;;;30.13;18.17;;;16.30;99.90;;;;;;5032632;28;20419;-78
2021/06/07 07:47:30;;;;;;;32.87;18.50;;;16.40;99.90;;;;;;5033490;28;20456;-78
2021/06/07 07:49:56;;;;;;;31.40;18.20;;;16.40;99.90;;;;;;5033386;28;20437;-77
2021/06/07 07:52:25;;;;;;;26.43;17.60;;;16.50;99.90;;;;;;5032742;28;20417;-78
2021/06/07 07:54:52;;;;;;;24.70;15.00;;;16.50;99.90;;;;;;5032923;28;20464;-78
2021/06/07 07:57:19;;;;;;;24.53;16.33;;;16.60;99.90;;;;;;5033241;28;20425;-78
2021/06/07 07:59:44;;;;;;;26.20;15.40;;;16.50;99.90;;;;;;5032158;28;20472;-78
2021/06/07 08:02:10;;;;;;;27.13;15.90;;;16.60;99.90;;;;;;5033214;28;20436;-78
2021/06/07 08:04:36;;;;;;;23.17;15.67;;;16.60;99.90;;;;;;5032363;28;20224;-78
2021/06/07 08:07:02;;;;;;;22.80;13.80;;;16.60;99.90;;;;;;5033209;28;20444;-79
2021/06/07 08:09:30;;;;;;;19.77;12.20;;;16.70;99.90;;;;;;5033074;28;20208;-78
2021/06/07 08:11:57;;;;;;;20.33;13.70;;;16.70;99.90;;;;;;5033083;28;20417;-78
2021/06/07 08:14:23;;;;;;;18.30;13.10;;;16.70;99.90;;;;;;5030229;28;20786;-78
2021/06/07 08:16:49;;;;;;;20.97;12.90;;;16.70;99.90;;;;;;5028948;28;20507;-78
2021/06/07 08:19:14;;;;;;;20.20;12.67;;;16.80;99.90;;;;;;5011945;28;20889;-78
2021/06/07 08:21:40;;;;;;;17.80;12.60;;;16.70;99.90;;;;;;5010831;28;20183;-78
2021/06/07 08:24:07;;;;;;;18.43;12.73;;;16.70;99.90;;;;;;5030018;28;20206;-78
2021/06/07 08:26:33;;;;;;;19.23;12.27;;;16.80;99.90;;;;;;5032881;28;20201;-78
2021/06/07 08:28:58;;;;;;;17.33;13.53;;;16.80;99.90;;;;;;5032923;28;20467;-78
2021/06/07 08:31:26;;;;;;;17.80;11.97;;;16.90;99.90;;;;;;5031873;28;20182;-78
2021/06/07 08:33:51;;;;;;;19.07;13.37;;;16.90;99.90;;;;;;5032491;28;20197;-78
2021/06/07 08:36:17;;;;;;;20.17;14.07;;;17.00;99.90;;;;;;5032589;28;20459;-78
2021/06/07 08:38:42;;;;;;;23.40;15.10;;;17.00;99.90;;;;;;5032765;28;20311;-78
2021/06/07 08:41:09;;;;;;;24.57;15.80;;;17.00;99.90;;;;;;5014378;28;20600;-77
2021/06/07 08:43:34;;;;;;;24.67;15.90;;;17.00;99.90;;;;;;4994634;28;20213;-78
2021/06/07 08:46:00;;;;;;;26.20;17.97;;;17.00;99.90;;;;;;5012819;28;20418;-78
2021/06/07 08:48:26;;;;;;;25.40;16.17;;;17.00;99.90;;;;;;5011748;28;20640;-78
2021/06/07 08:50:52;;;;;;;21.37;15.93;;;17.00;99.90;;;;;;5011204;28;20568;-78
2021/06/07 08:53:20;;;;;;;22.70;16.07;;;17.20;99.90;;;;;;5011999;28;20639;-77
2021/06/07 08:55:46;;;;;;;24.63;16.53;;;17.30;99.90;;;;;;4995942;28;20186;-78
2021/06/07 08:58:11;;;;;;;25.23;15.40;;;17.40;99.90;;;;;;5012496;28;21081;-78
2021/06/07 09:00:39;;;;;;;21.60;15.00;;;17.40;99.90;;;;;;5012800;28;20624;-78
2021/06/07 09:03:07;;;;;;;23.17;16.43;;;17.50;99.90;;;;;;4993628;28;20548;-78
2021/06/07 09:05:33;;;;;;;27.20;16.20;;;17.30;99.90;;;;;;5012588;28;20410;-79
2021/06/07 09:08:00;;;;;;;21.17;14.87;;;17.40;99.90;;;;;;5012490;28;20409;-79
2021/06/07 09:10:27;;;;;;;25.10;16.80;;;17.40;99.90;;;;;;5012280;28;20436;-78
2021/06/07 09:12:56;;;;;;;24.10;15.50;;;17.50;99.90;;;;;;5011362;28;20417;-78
2021/06/07 09:15:45;;;;;;;20.40;15.60;;;17.50;99.90;;;;;;5012184;28;20428;-77
2021/06/07 09:18:13;;;;;;;24.53;15.77;;;17.60;99.90;;;;;;5011673;28;20954;-78
2021/06/07 09:20:41;;;;;;;24.07;16.93;;;17.70;99.90;;;;;;5012066;28;20430;-78
2021/06/07 09:23:16;;;;;;;19.13;13.90;;;17.90;99.90;;;;;;5011586;28;20509;-76
2021/06/07 09:25:46;;;;;;;20.53;14.90;;;17.90;99.90;;;;;;5011508;28;20923;-78
2021/06/07 09:28:20;;;;;;;19.37;14.10;;;18.00;99.90;;;;;;4993803;28;20437;-79
2021/06/07 09:30:57;;;;;;;18.57;13.30;;;18.10;99.90;;;;;;5011855;28;20441;-78
2021/06/07 09:33:40;;;;;;;20.00;14.60;;;18.10;99.90;;;;;;4993040;28;20998;-77
2021/06/07 09:36:09;;;;;;;20.13;14.20;;;18.20;99.90;;;;;;5011832;28;20428;-78
2021/06/07 09:38:51;;;;;;;18.60;13.40;;;18.20;99.90;;;;;;5019947;28;20463;-78
2021/06/07 09:41:17;;;;;;;20.47;13.33;;;18.10;99.90;;;;;;5031553;28;20424;-78
2021/06/07 09:44:03;;;;;;;21.33;14.63;;;18.10;99.90;;;;;;5017799;28;20895;-78
2021/06/07 09:46:31;;;;;;;19.20;13.20;;;18.10;99.90;;;;;;5018454;28;20209;-78
2021/06/07 09:49:11;;;;;;;18.37;14.30;;;18.30;99.90;;;;;;5013765;28;20451;-78
2021/06/07 09:51:37;;;;;;;19.40;13.50;;;18.10;99.90;;;;;;5013210;28;20445;-79
2021/06/07 09:54:04;;;;;;;19.33;13.10;;;18.20;99.90;;;;;;5025503;28;20846;-79
2021/06/07 09:56:29;;;;;;;15.80;13.10;;;18.20;99.90;;;;;;5014011;28;20421;-78
2021/06/07 09:58:55;;;;;;;20.27;14.40;;;18.10;99.90;;;;;;5031661;28;20521;-79
2021/06/07 10:01:31;;;;;;;18.17;15.07;;;18.00;99.90;;;;;;5031456;28;20644;-78
2021/06/07 10:03:59;;;;;;;16.23;12.73;;;18.00;99.90;;;;;;5031499;28;20174;-78
2021/06/07 10:06:35;;;;;;;18.10;14.43;;;18.00;99.90;;;;;;5034768;28;20417;-78
2021/06/07 10:09:08;;;;;;;19.10;14.17;;;18.10;99.90;;;;;;5014231;28;20849;-78
2021/06/07 10:11:42;;;;;;;18.10;13.73;;;18.10;99.90;;;;;;5017115;28;20417;-78
2021/06/07 10:14:19;;;;;;;18.23;13.37;;;18.20;99.90;;;;;;5022281;28;20453;-79
2021/06/07 10:17:01;;;;;;;19.43;13.53;;;18.20;99.90;;;;;;5024568;28;20401;-79
2021/06/07 10:19:33;;;;;;;17.53;14.00;;;18.20;99.90;;;;;;5024299;28;20519;-78
2021/06/07 10:22:01;;;;;;;20.13;13.90;;;18.20;99.90;;;;;;5009543;28;20425;-79
2021/06/07 10:24:28;;;;;;;18.03;13.90;;;18.30;99.90;;;;;;5025526;28;20410;-79
2021/06/07 10:26:54;;;;;;;15.07;11.80;;;18.40;99.90;;;;;;5024689;28;20945;-79
2021/06/07 10:29:20;;;;;;;15.13;12.83;;;18.40;99.90;;;;;;5024575;28;20429;-79
2021/06/07 10:31:46;;;;;;;14.93;12.77;;;18.50;99.90;;;;;;5022435;28;20270;-77
2021/06/07 10:34:12;;;;;;;20.30;13.60;;;18.60;99.90;;;;;;5023606;28;20190;-79
2021/06/07 10:36:47;;;;;;;12.70;11.53;;;18.70;99.90;;;;;;5017029;28;20190;-80
2021/06/07 10:42:01;;;;;;;16.90;13.63;;;19.10;99.90;;;;;;5023598;28;20406;-79
2021/06/07 10:44:49;;;;;;;16.47;12.20;;;19.20;99.90;;;;;;5010285;28;20421;-78
2021/06/07 10:47:17;;;;;;;16.43;13.80;;;19.30;99.90;;;;;;5035498;28;20411;-78
2021/06/07 10:49:49;;;;;;;16.90;13.00;;;19.40;99.90;;;;;;5034569;28;20860;-78
2021/06/07 10:52:24;;;;;;;18.40;14.43;;;19.40;99.90;;;;;;5034673;28;20855;-79
2021/06/07 10:55:05;;;;;;;16.53;12.50;;;19.50;99.90;;;;;;5035587;28;20428;-78
2021/06/07 10:57:37;;;;;;;19.03;13.10;;;19.50;99.90;;;;;;5018499;28;20875;-79
2021/06/07 11:00:12;;;;;;;16.83;11.50;;;19.70;99.90;;;;;;5035265;28;20468;-78
2021/06/07 11:02:43;;;;;;;15.70;13.80;;;19.50;99.90;;;;;;5034442;28;20522;-79
2021/06/07 11:05:19;;;;;;;16.77;12.50;;;19.60;99.90;;;;;;5035859;28;20408;-79
2021/06/07 11:07:58;;;;;;;17.40;14.30;;;19.50;99.90;;;;;;5017200;28;20482;-78
2021/06/07 11:10:27;;;;;;;18.10;14.30;;;19.40;99.90;;;;;;5034230;28;20453;-78
2021/06/07 11:12:55;;;;;;;19.10;16.03;;;19.30;99.90;;;;;;5026101;28;20421;-78
2021/06/07 11:15:32;;;;;;;18.45;14.55;;;19.20;99.90;;;;;;5013815;28;20490;-78
2021/06/07 11:18:20;;;;;;;16.90;10.77;;;19.00;99.90;;;;;;5014151;28;20229;-77
2021/06/07 11:20:46;;;;;;;18.90;12.70;;;19.10;99.90;;;;;;5012797;28;20794;-77
2021/06/07 11:23:21;;;;;;;15.90;12.60;;;19.20;99.90;;;;;;5013395;28;20414;-77
2021/06/07 11:25:53;;;;;;;12.53;11.23;;;19.30;99.90;;;;;;5013665;28;20413;-78
2021/06/07 11:28:40;;;;;;;16.03;13.53;;;19.30;99.90;;;;;;5014120;28;20944;-77
2021/06/07 11:31:26;;;;;;;15.80;12.37;;;19.30;99.90;;;;;;5014259;28;20409;-77
2021/06/07 11:33:53;;;;;;;14.07;12.57;;;19.30;99.90;;;;;;4999664;28;20461;-78
2021/06/07 11:36:39;;;;;;;14.20;12.70;;;19.30;99.90;;;;;;5014525;28;20955;-78
2021/06/07 11:39:08;;;;;;;16.40;12.53;;;19.20;99.90;;;;;;4996903;28;20465;-79
2021/06/07 11:41:44;;;;;;;16.13;13.63;;;19.20;99.90;;;;;;5015663;28;20827;-79
2021/06/07 11:44:11;;;;;;;17.27;14.50;;;19.30;99.90;;;;;;5013680;28;20440;-78
2021/06/07 11:46:40;;;;;;;18.43;15.63;;;19.30;99.90;;;;;;5014933;28;20402;-79
2021/06/07 11:49:09;;;;;;;17.13;14.20;;;19.20;99.90;;;;;;5015233;28;20438;-79
2021/06/07 11:51:36;;;;;;;19.77;14.97;;;19.20;99.90;;;;;;5015064;28;20442;-78
2021/06/07 11:54:27;;;;;;;16.37;13.20;;;19.10;99.90;;;;;;5013421;28;20433;-79
2021/06/07 11:56:53;;;;;;;17.73;14.93;;;19.10;99.90;;;;;;5014399;28;20430;-79
2021/06/07 11:59:23;;;;;;;17.90;14.13;;;19.10;99.90;;;;;;5014281;28;20468;-79
2021/06/07 12:01:49;;;;;;;16.60;14.53;;;19.20;99.90;;;;;;5016808;28;20406;-79
2021/06/07 12:04:28;;;;;;;18.20;14.80;;;19.20;99.90;;;;;;5014380;28;20481;-79
2021/06/07 12:07:05;;;;;;;19.03;14.50;;;19.40;99.90;;;;;;5014086;28;20425;-78
2021/06/07 12:09:32;;;;;;;16.20;13.20;;;19.50;99.90;;;;;;5013504;28;20515;-79
2021/06/07 12:11:58;;;;;;;19.20;15.47;;;19.60;99.90;;;;;;5013190;28;20479;-77
2021/06/07 12:14:33;;;;;;;16.73;14.70;;;19.70;99.90;;;;;;5011282;28;20421;-78
2021/06/07 12:17:08;;;;;;;21.00;15.27;;;19.80;99.90;;;;;;5013532;28;20171;-79
2021/06/07 12:19:40;;;;;;;18.20;14.57;;;19.90;99.90;;;;;;5013348;28;20522;-78
2021/06/07 12:22:07;;;;;;;17.40;14.87;;;19.90;99.90;;;;;;5014424;28;20471;-79
2021/06/07 12:24:34;;;;;;;25.27;16.47;;;19.90;99.90;;;;;;5013334;28;20875;-79
2021/06/07 12:29:45;;;;;;;17.33;15.43;;;20.20;99.90;;;;;;5013305;28;20455;-79
2021/06/07 12:32:17;;;;;;;20.57;17.20;;;20.30;99.90;;;;;;5012680;28;20413;-79
2021/06/07 12:35:10;;;;;;;20.83;18.73;;;20.40;99.90;;;;;;5010439;28;20422;-78
2021/06/07 12:37:40;;;;;;;15.23;13.60;;;20.50;99.90;;;;;;5012321;28;20191;-78
2021/06/07 12:40:28;;;;;;;15.20;13.13;;;20.30;99.90;;;;;;5012183;28;20484;-76